Time;durP1;ratioP1;P1;durP2;ratioP2;P2;SDS_P1;SDS_P2;PMS_P1;PMS_P2;Temp;Humidity;BMP_temperature;BMP_pressure;BME280_temperature;BME280_humidity;BME280_pressure;Samples;Min_cycle;Max_cycle;Signal;HPM_P1;HPM_P2
2022/05/24 00:00:14;;;;;;;3.75;3.05;;;10.40;92.30;;;;;;5055447;28;20017;-69
2022/05/24 00:02:40;;;;;;;3.67;3.25;;;10.40;91.40;;;;;;5055107;28;20094;-69
2022/05/24 00:05:07;;;;;;;3.33;3.10;;;10.40;92.50;;;;;;5055279;28;20018;-70
2022/05/24 00:07:33;;;;;;;3.88;3.55;;;10.40;92.20;;;;;;5055268;28;20056;-70
2022/05/24 00:09:59;;;;;;;3.60;3.30;;;10.40;92.70;;;;;;5055357;28;20025;-71
2022/05/24 00:12:25;;;;;;;4.65;3.15;;;10.50;92.60;;;;;;5053841;28;20025;-70
2022/05/24 00:17:35;;;;;;;4.28;3.60;;;10.50;92.00;;;;;;5055163;28;20513;-70
2022/05/24 00:20:00;;;;;;;4.10;3.47;;;10.50;91.70;;;;;;5055041;28;20053;-69
2022/05/24 00:22:27;;;;;;;4.57;3.65;;;10.50;92.50;;;;;;5054944;28;20442;-69
2022/05/24 00:24:55;;;;;;;4.43;4.03;;;10.50;93.20;;;;;;5057605;28;20017;-71
2022/05/24 00:27:21;;;;;;;4.63;4.00;;;10.50;94.10;;;;;;5073515;28;20363;-69
2022/05/24 00:29:46;;;;;;;4.10;3.80;;;10.40;93.50;;;;;;5054354;28;20021;-69
2022/05/24 00:32:12;;;;;;;4.80;4.40;;;10.50;93.60;;;;;;5054839;28;20492;-70
2022/05/24 00:34:37;;;;;;;6.13;4.22;;;10.50;95.30;;;;;;5054773;28;20029;-68
2022/05/24 00:37:03;;;;;;;3.28;3.08;;;10.50;95.60;;;;;;5054683;28;20033;-70
2022/05/24 00:39:29;;;;;;;4.20;3.83;;;10.50;94.70;;;;;;5054833;28;20021;-69
2022/05/24 00:42:03;;;;;;;4.10;3.70;;;10.50;94.50;;;;;;5054982;28;20065;-68
2022/05/24 00:44:49;;;;;;;3.95;3.55;;;10.50;96.80;;;;;;5054735;28;20068;-68
2022/05/24 00:47:37;;;;;;;3.70;3.38;;;10.50;97.70;;;;;;5054483;28;20021;-68
2022/05/24 00:50:19;;;;;;;7.07;4.07;;;10.40;98.90;;;;;;5054604;28;20139;-71
2022/05/24 00:52:57;;;;;;;3.97;3.65;;;10.30;99.80;;;;;;5054514;28;20017;-69
2022/05/24 00:55:25;;;;;;;5.53;4.80;;;10.20;99.90;;;;;;5054445;28;20119;-68
2022/05/24 00:58:07;;;;;;;4.28;3.88;;;10.20;99.90;;;;;;5054360;28;20032;-68
2022/05/24 01:00:34;;;;;;;3.92;3.60;;;10.10;99.90;;;;;;5053059;28;20025;-71
2022/05/24 01:03:00;;;;;;;4.53;4.13;;;10.20;99.90;;;;;;5052861;28;20132;-70
2022/05/24 01:05:29;;;;;;;4.30;3.92;;;10.20;99.90;;;;;;5054430;28;20052;-70
2022/05/24 01:07:55;;;;;;;4.65;4.25;;;10.10;99.90;;;;;;5053845;28;20048;-70
2022/05/24 01:10:26;;;;;;;5.63;4.22;;;10.10;99.90;;;;;;5053308;28;20059;-69
2022/05/24 01:13:00;;;;;;;6.35;4.72;;;10.20;99.90;;;;;;5052744;28;20124;-68
2022/05/24 01:15:26;;;;;;;4.72;4.00;;;10.20;99.90;;;;;;5054253;28;20021;-68
2022/05/24 01:17:53;;;;;;;6.00;5.15;;;10.20;99.90;;;;;;5053939;28;20116;-70
2022/05/24 01:20:20;;;;;;;4.78;4.30;;;10.30;99.90;;;;;;5053816;28;20059;-68
2022/05/24 01:22:57;;;;;;;4.43;4.07;;;10.30;99.90;;;;;;5053847;28;20033;-68
2022/05/24 01:25:28;;;;;;;5.03;4.53;;;10.30;99.90;;;;;;5053910;28;20096;-71
2022/05/24 01:27:54;;;;;;;4.88;4.47;;;10.40;99.90;;;;;;5052453;28;20028;-71
2022/05/24 01:30:20;;;;;;;4.93;4.43;;;10.40;99.90;;;;;;5053670;28;20029;-70
2022/05/24 01:38:34;;;;;;;5.20;4.35;;;10.50;99.90;;;;;;5031500;28;20079;-68
2022/05/24 01:41:00;;;;;;;4.75;4.25;;;10.50;99.90;;;;;;5031597;28;20056;-69
2022/05/24 01:43:28;;;;;;;5.32;4.50;;;10.50;99.90;;;;;;5041795;28;20387;-69
2022/05/24 01:45:59;;;;;;;6.15;4.30;;;10.50;99.90;;;;;;5053469;28;20025;-69
2022/05/24 01:48:42;;;;;;;6.75;4.43;;;10.50;99.90;;;;;;5053372;28;20020;-69
2022/05/24 01:51:12;;;;;;;5.45;4.70;;;10.50;99.90;;;;;;5053452;28;20029;-70
2022/05/24 01:53:43;;;;;;;4.60;4.13;;;10.60;99.90;;;;;;5053226;28;20052;-69
2022/05/24 01:56:14;;;;;;;8.30;4.82;;;10.60;99.90;;;;;;5053274;28;20021;-69
2022/05/24 01:58:41;;;;;;;5.00;4.50;;;10.60;99.90;;;;;;5051889;28;20052;-69
2022/05/24 02:01:34;;;;;;;5.65;4.82;;;10.60;99.90;;;;;;5053288;28;20024;-69
2022/05/24 02:04:03;;;;;;;4.57;4.18;;;10.60;99.90;;;;;;5050180;28;20049;-70
2022/05/24 02:06:30;;;;;;;6.10;4.72;;;10.60;99.90;;;;;;5051833;28;20032;-70
2022/05/24 02:08:56;;;;;;;4.95;4.47;;;10.60;99.90;;;;;;5051841;28;20017;-69
2022/05/24 02:11:25;;;;;;;5.30;4.57;;;10.60;99.90;;;;;;5053060;28;20441;-68
2022/05/24 02:14:08;;;;;;;5.30;4.50;;;10.60;99.80;;;;;;5051990;28;20078;-70
2022/05/24 02:16:36;;;;;;;5.70;4.78;;;10.60;99.90;;;;;;5053010;28;20470;-70
2022/05/24 02:19:03;;;;;;;6.85;4.70;;;10.50;99.90;;;;;;5052889;28;20025;-70
2022/05/24 02:21:28;;;;;;;5.70;4.28;;;10.50;99.90;;;;;;5052869;28;20386;-69
2022/05/24 02:23:54;;;;;;;6.45;4.25;;;10.50;99.70;;;;;;5051580;28;20033;-69
2022/05/24 02:26:22;;;;;;;5.95;5.13;;;10.60;99.10;;;;;;5052805;28;20104;-70
2022/05/24 02:28:53;;;;;;;5.25;4.55;;;10.60;99.50;;;;;;5052807;28;20155;-69
2022/05/24 02:31:20;;;;;;;6.78;4.85;;;10.60;99.50;;;;;;5052914;28;20088;-71
2022/05/24 02:33:46;;;;;;;5.05;4.55;;;10.60;99.70;;;;;;5052904;28;20482;-68
2022/05/24 02:36:13;;;;;;;7.72;5.28;;;10.60;99.70;;;;;;5052896;28;20462;-70
2022/05/24 02:38:39;;;;;;;5.82;5.07;;;10.50;99.00;;;;;;5052813;28;20025;-69
2022/05/24 02:43:49;;;;;;;6.07;4.60;;;10.60;99.90;;;;;;5052830;28;20040;-71
2022/05/24 02:46:17;;;;;;;5.28;4.78;;;10.60;99.30;;;;;;5052844;28;20025;-70
2022/05/24 02:48:43;;;;;;;5.10;4.45;;;10.60;99.00;;;;;;5052768;28;20030;-69
2022/05/24 02:51:11;;;;;;;7.38;5.28;;;10.60;99.50;;;;;;5051369;28;20078;-69
2022/05/24 02:53:37;;;;;;;5.25;4.80;;;10.60;99.90;;;;;;5052683;28;20021;-70
2022/05/24 02:56:04;;;;;;;6.07;4.85;;;10.50;99.90;;;;;;5052637;28;20033;-71
2022/05/24 02:58:31;;;;;;;7.68;5.47;;;10.60;99.40;;;;;;5052538;28;20025;-71
2022/05/24 03:00:57;;;;;;;6.60;5.13;;;10.60;99.20;;;;;;5052764;28;20630;-69
2022/05/24 03:03:22;;;;;;;6.00;5.10;;;10.60;99.40;;;;;;5052454;28;20131;-69
2022/05/24 03:05:48;;;;;;;6.43;5.18;;;10.60;99.10;;;;;;5051342;28;20231;-71
2022/05/24 03:10:58;;;;;;;6.13;5.13;;;10.60;99.90;;;;;;5052653;28;20063;-70
2022/05/24 03:16:13;;;;;;;6.30;5.65;;;10.70;99.90;;;;;;5052774;28;20576;-68
2022/05/24 03:18:40;;;;;;;5.95;5.32;;;10.70;99.90;;;;;;5052222;28;20052;-69
2022/05/24 03:21:06;;;;;;;6.35;4.70;;;10.70;99.90;;;;;;5052480;28;20099;-70
2022/05/24 03:23:32;;;;;;;6.88;6.18;;;10.70;99.10;;;;;;5052349;28;20433;-70
2022/05/24 03:25:57;;;;;;;6.22;5.63;;;10.70;99.60;;;;;;5064939;28;20032;-70
2022/05/24 03:28:23;;;;;;;6.03;5.20;;;10.80;99.10;;;;;;5070999;28;20029;-69
2022/05/24 03:30:49;;;;;;;7.90;5.45;;;10.80;99.90;;;;;;5050964;28;20115;-70
2022/05/24 03:33:14;;;;;;;7.35;5.55;;;10.80;99.90;;;;;;5054851;28;20040;-69
2022/05/24 03:35:41;;;;;;;7.80;5.97;;;11.00;99.90;;;;;;5055799;28;20032;-71
2022/05/24 03:38:07;;;;;;;6.47;5.85;;;11.00;96.40;;;;;;5056001;28;20025;-69
2022/05/24 03:40:33;;;;;;;5.78;5.15;;;11.10;96.20;;;;;;5055466;28;20474;-69
2022/05/24 03:42:59;;;;;;;7.57;6.05;;;11.10;95.90;;;;;;5055861;28;20036;-70
2022/05/24 03:45:26;;;;;;;8.38;5.93;;;11.10;96.50;;;;;;5055682;28;20045;-71
2022/05/24 03:47:52;;;;;;;7.82;5.25;;;11.10;96.60;;;;;;5055779;28;20104;-69
2022/05/24 03:50:18;;;;;;;7.43;5.57;;;11.20;96.90;;;;;;5055578;28;20033;-70
2022/05/24 03:52:44;;;;;;;8.77;6.05;;;11.20;97.50;;;;;;5055709;28;20025;-68
2022/05/24 03:55:09;;;;;;;7.22;5.20;;;11.30;97.30;;;;;;5055529;28;20467;-69
2022/05/24 04:00:21;;;;;;;6.93;5.13;;;11.40;95.60;;;;;;5055413;28;20095;-69
2022/05/24 04:02:47;;;;;;;8.57;6.10;;;11.50;93.70;;;;;;5055301;28;20033;-70
2022/05/24 04:05:13;;;;;;;6.18;5.25;;;11.50;93.50;;;;;;5055316;28;20479;-71
2022/05/24 04:07:39;;;;;;;7.28;5.97;;;11.50;94.20;;;;;;5055418;28;20057;-71
2022/05/24 04:10:07;;;;;;;6.32;5.60;;;11.40;94.30;;;;;;5055441;28;20029;-69
2022/05/24 04:12:33;;;;;;;5.75;5.10;;;11.40;95.40;;;;;;5055236;28;20013;-70
2022/05/24 04:14:58;;;;;;;6.43;5.50;;;11.40;94.80;;;;;;5055342;28;20115;-71
2022/05/24 04:17:24;;;;;;;7.70;5.45;;;11.40;95.10;;;;;;5055241;28;20056;-69
2022/05/24 04:19:49;;;;;;;5.63;5.13;;;11.40;95.50;;;;;;5054931;28;20124;-69
2022/05/24 04:22:15;;;;;;;7.20;5.70;;;11.60;94.50;;;;;;5054992;28;20025;-69
2022/05/24 04:24:40;;;;;;;6.70;5.40;;;11.80;94.30;;;;;;5053486;28;20021;-70
2022/05/24 04:27:07;;;;;;;6.97;5.88;;;11.90;91.80;;;;;;5073695;28;20477;-70
2022/05/24 04:29:33;;;;;;;6.10;5.15;;;11.90;93.00;;;;;;5060100;28;20048;-70
2022/05/24 04:31:59;;;;;;;6.28;5.65;;;11.90;91.60;;;;;;5050952;28;20024;-70
2022/05/24 04:34:25;;;;;;;6.43;5.65;;;11.80;92.80;;;;;;5069902;28;20407;-70
2022/05/24 04:36:50;;;;;;;6.88;5.40;;;11.80;94.30;;;;;;5073131;28;20028;-70
2022/05/24 04:39:17;;;;;;;6.65;5.25;;;11.70;95.70;;;;;;5066905;28;20128;-69
2022/05/24 04:44:27;;;;;;;6.38;5.68;;;11.70;97.90;;;;;;5073293;28;20055;-70
2022/05/24 04:47:08;;;;;;;7.45;5.50;;;11.60;97.40;;;;;;5070343;28;20033;-70
2022/05/24 04:49:35;;;;;;;35.33;8.77;;;11.60;99.70;;;;;;5050525;28;20127;-70
2022/05/24 04:52:01;;;;;;;10.65;5.88;;;11.60;99.60;;;;;;5070166;28;20032;-71
2022/05/24 04:54:27;;;;;;;6.80;5.43;;;11.70;99.90;;;;;;5061415;28;20029;-71
2022/05/24 04:56:52;;;;;;;7.80;5.70;;;11.60;99.90;;;;;;5064093;28;20432;-71
2022/05/24 04:59:18;;;;;;;6.55;5.53;;;11.70;99.90;;;;;;5071888;28;20478;-71
2022/05/24 05:01:44;;;;;;;7.30;5.85;;;11.70;99.90;;;;;;5073210;28;20032;-71
2022/05/24 05:04:10;;;;;;;7.10;5.90;;;11.80;99.90;;;;;;5062648;28;20079;-71
2022/05/24 05:06:36;;;;;;;10.02;5.47;;;11.90;99.90;;;;;;5045896;28;20017;-71
2022/05/24 05:09:02;;;;;;;7.00;4.82;;;11.90;99.50;;;;;;5070666;28;20512;-70
2022/05/24 05:11:28;;;;;;;6.45;5.57;;;12.00;99.90;;;;;;5043180;28;20105;-70
2022/05/24 05:13:53;;;;;;;7.07;5.90;;;12.00;99.90;;;;;;5057517;28;20075;-69
2022/05/24 05:16:19;;;;;;;7.13;5.47;;;12.00;99.90;;;;;;5071482;28;20016;-71
2022/05/24 05:18:45;;;;;;;7.97;5.25;;;12.10;99.90;;;;;;5073170;28;20020;-71
2022/05/24 05:21:11;;;;;;;8.52;5.97;;;12.10;99.40;;;;;;5071795;28;20094;-71
2022/05/24 05:23:37;;;;;;;6.47;5.38;;;12.10;99.90;;;;;;5071743;28;20446;-71
2022/05/24 05:26:02;;;;;;;7.82;5.65;;;12.20;99.90;;;;;;5061540;28;20036;-71
2022/05/24 05:28:28;;;;;;;7.35;5.82;;;12.20;99.90;;;;;;5070224;28;20025;-71
2022/05/24 05:33:38;;;;;;;6.15;5.55;;;12.40;99.90;;;;;;5056958;28;20048;-71
2022/05/24 05:36:04;;;;;;;6.30;5.68;;;12.40;99.90;;;;;;5070429;28;20024;-71
2022/05/24 05:38:31;;;;;;;8.85;6.03;;;12.40;99.90;;;;;;5070844;28;20020;-70
2022/05/24 05:40:58;;;;;;;5.93;5.43;;;12.50;99.90;;;;;;5071251;28;20032;-69
2022/05/24 05:43:24;;;;;;;6.13;5.30;;;12.60;99.90;;;;;;5066457;28;20472;-69
2022/05/24 05:45:54;;;;;;;7.82;5.35;;;12.70;99.90;;;;;;5054300;28;20033;-70
2022/05/24 05:48:21;;;;;;;5.47;4.97;;;12.80;99.90;;;;;;5056591;28;20056;-69
2022/05/24 05:50:47;;;;;;;9.25;5.90;;;13.00;99.40;;;;;;5061646;28;20032;-69
2022/05/24 05:53:17;;;;;;;6.38;4.97;;;13.10;98.40;;;;;;5069340;28;20044;-70
2022/05/24 05:55:42;;;;;;;6.53;5.50;;;13.20;97.40;;;;;;5041224;28;20059;-70
2022/05/24 05:58:09;;;;;;;4.45;4.05;;;13.30;95.50;;;;;;5066683;28;20488;-71
2022/05/24 06:00:36;;;;;;;5.00;4.47;;;13.50;94.30;;;;;;5068725;28;20087;-71
2022/05/24 06:03:02;;;;;;;5.28;4.78;;;13.60;88.20;;;;;;5068385;28;20039;-71
2022/05/24 06:05:28;;;;;;;5.95;4.68;;;13.80;89.00;;;;;;5067769;28;20445;-70
2022/05/24 06:07:58;;;;;;;5.35;4.85;;;13.90;85.90;;;;;;5067430;28;20035;-71
2022/05/24 06:10:24;;;;;;;5.93;4.30;;;14.10;86.30;;;;;;5069947;28;20028;-71
2022/05/24 06:12:53;;;;;;;6.38;4.40;;;14.10;84.30;;;;;;5069180;28;20013;-71
2022/05/24 06:15:21;;;;;;;5.90;4.22;;;14.20;86.00;;;;;;5070754;28;20508;-72
2022/05/24 06:17:49;;;;;;;5.10;4.18;;;14.30;83.60;;;;;;5072070;28;20020;-71
2022/05/24 06:20:17;;;;;;;4.40;4.00;;;14.40;83.10;;;;;;5069703;28;20059;-71
2022/05/24 06:22:43;;;;;;;5.53;4.35;;;14.40;84.70;;;;;;5069865;28;20037;-71
2022/05/24 06:25:09;;;;;;;7.22;4.30;;;14.50;83.70;;;;;;5050211;28;20041;-71
2022/05/24 06:27:35;;;;;;;6.07;3.95;;;14.50;84.10;;;;;;5041377;28;20413;-71
2022/05/24 06:30:00;;;;;;;4.93;3.78;;;14.60;83.10;;;;;;5040713;28;20088;-71
2022/05/24 06:32:26;;;;;;;5.30;4.07;;;14.70;80.30;;;;;;5056761;28;20108;-71
2022/05/24 06:34:53;;;;;;;4.40;4.00;;;14.70;83.00;;;;;;5070315;28;20158;-71
2022/05/24 06:37:19;;;;;;;5.35;4.20;;;14.70;82.10;;;;;;5071877;28;20099;-71
2022/05/24 06:39:47;;;;;;;4.50;4.10;;;14.80;82.00;;;;;;5068897;28;20030;-71
2022/05/24 06:42:12;;;;;;;4.78;4.18;;;14.90;82.30;;;;;;5070175;28;20107;-71
2022/05/24 06:44:38;;;;;;;7.50;4.15;;;15.00;81.60;;;;;;5067902;28;20101;-71
2022/05/24 06:47:04;;;;;;;7.30;4.40;;;15.10;81.70;;;;;;5071547;28;20051;-69
2022/05/24 06:49:30;;;;;;;3.88;3.55;;;15.30;82.20;;;;;;5061331;28;20039;-69
2022/05/24 06:51:55;;;;;;;5.78;4.30;;;15.50;78.70;;;;;;5063011;28;20128;-71
2022/05/24 06:54:21;;;;;;;4.75;4.25;;;15.60;78.00;;;;;;5058563;28;20079;-71
2022/05/24 06:56:46;;;;;;;9.15;4.10;;;15.80;77.00;;;;;;5062004;28;20041;-71
2022/05/24 07:04:40;;;;;;;5.25;3.58;;;16.20;76.50;;;;;;5066257;28;20076;-71
2022/05/24 07:07:06;;;;;;;5.55;4.53;;;16.20;76.60;;;;;;5042935;28;20060;-72
2022/05/24 07:09:31;;;;;;;4.47;3.85;;;16.30;76.80;;;;;;5073048;28;20027;-72
2022/05/24 07:11:58;;;;;;;4.25;3.85;;;16.30;76.10;;;;;;5074962;28;20477;-72
2022/05/24 07:14:24;;;;;;;5.25;3.58;;;16.40;76.40;;;;;;5075534;28;20021;-71
2022/05/24 07:16:51;;;;;;;3.75;3.45;;;16.40;74.20;;;;;;5075198;28;20359;-70
2022/05/24 07:19:17;;;;;;;3.83;3.42;;;16.40;73.80;;;;;;5073957;28;20063;-69
2022/05/24 07:21:44;;;;;;;7.97;3.92;;;16.40;75.20;;;;;;5074580;28;20462;-69
2022/05/24 07:24:10;;;;;;;3.53;3.22;;;16.40;73.00;;;;;;5073699;28;20037;-69
2022/05/24 07:26:35;;;;;;;4.88;3.45;;;16.50;73.40;;;;;;5048384;28;20033;-70
2022/05/24 07:29:01;;;;;;;4.03;2.92;;;16.50;74.50;;;;;;5066876;28;20130;-69
2022/05/24 07:31:26;;;;;;;6.00;3.85;;;16.60;76.30;;;;;;5069816;28;20390;-69
2022/05/24 07:33:52;;;;;;;8.55;3.53;;;16.60;73.30;;;;;;5075120;28;20107;-69
2022/05/24 07:36:17;;;;;;;5.15;3.33;;;16.60;71.50;;;;;;5072833;28;20028;-70
2022/05/24 07:38:43;;;;;;;10.15;3.50;;;16.60;71.40;;;;;;5073362;28;20044;-69
2022/05/24 07:46:37;;;;;;;7.45;3.55;;;17.00;70.70;;;;;;5068748;28;20564;-72
2022/05/24 07:49:03;;;;;;;6.30;3.13;;;17.10;70.70;;;;;;5066699;28;20064;-72
2022/05/24 07:51:28;;;;;;;4.47;3.13;;;17.20;68.80;;;;;;5072978;28;20021;-72
2022/05/24 07:53:54;;;;;;;7.13;2.97;;;17.30;68.40;;;;;;5074499;28;20032;-70
2022/05/24 07:56:19;;;;;;;4.57;3.42;;;17.30;68.20;;;;;;5067507;28;20039;-70
2022/05/24 07:58:48;;;;;;;3.90;2.80;;;17.40;67.30;;;;;;5074512;28;20052;-69
2022/05/24 08:01:15;;;;;;;6.65;3.30;;;17.50;66.60;;;;;;5074330;28;20759;-69
2022/05/24 08:03:41;;;;;;;3.53;2.80;;;17.60;66.00;;;;;;5074349;28;20072;-69
2022/05/24 08:06:08;;;;;;;3.88;3.33;;;17.60;66.10;;;;;;5073607;28;20392;-69
2022/05/24 08:08:34;;;;;;;5.22;2.78;;;17.70;65.30;;;;;;5050910;28;20512;-69
2022/05/24 08:11:00;;;;;;;4.10;2.90;;;17.80;65.20;;;;;;5074207;28;20021;-69
2022/05/24 08:13:26;;;;;;;5.22;3.13;;;17.90;66.40;;;;;;5074210;28;20032;-70
2022/05/24 08:15:53;;;;;;;4.38;2.80;;;18.00;65.10;;;;;;5067117;28;20079;-69
2022/05/24 08:18:20;;;;;;;7.35;3.92;;;18.00;64.70;;;;;;5070036;28;20037;-69
2022/05/24 08:20:47;;;;;;;3.88;3.53;;;18.10;65.50;;;;;;5073534;28;20048;-69
2022/05/24 08:23:13;;;;;;;5.43;3.30;;;18.10;64.90;;;;;;5073375;28;20435;-69
2022/05/24 08:25:39;;;;;;;5.25;3.30;;;18.10;64.70;;;;;;5060764;28;20508;-72
2022/05/24 08:28:07;;;;;;;5.47;3.03;;;18.30;65.50;;;;;;5067479;28;20036;-72
2022/05/24 08:30:35;;;;;;;7.47;2.88;;;18.40;66.00;;;;;;5074373;28;20069;-69
2022/05/24 08:33:04;;;;;;;3.58;2.85;;;18.60;65.70;;;;;;5073394;28;20037;-70
2022/05/24 08:35:32;;;;;;;5.13;2.83;;;18.80;62.70;;;;;;5065699;28;20025;-72
2022/05/24 08:37:58;;;;;;;4.07;3.15;;;19.00;60.90;;;;;;5046752;28;20037;-73
2022/05/24 08:40:24;;;;;;;4.80;2.85;;;19.20;60.70;;;;;;5047370;28;20039;-69
2022/05/24 08:43:04;;;;;;;7.63;3.03;;;19.30;58.40;;;;;;5043617;28;20041;-70
2022/05/24 08:48:36;;;;;;;5.82;2.67;;;19.70;57.20;;;;;;5072651;28;20031;-69
2022/05/24 08:51:13;;;;;;;3.95;2.70;;;19.80;56.60;;;;;;5063779;28;20032;-73
2022/05/24 08:53:46;;;;;;;5.13;2.63;;;19.80;56.90;;;;;;5064888;28;20123;-69
2022/05/24 08:56:17;;;;;;;5.70;2.88;;;19.80;56.50;;;;;;5069532;28;20031;-69
2022/05/24 08:58:52;;;;;;;4.53;3.05;;;19.70;57.10;;;;;;5059940;28;20090;-69
2022/05/24 09:01:28;;;;;;;5.28;2.58;;;19.70;57.80;;;;;;5073322;28;20473;-70
2022/05/24 09:03:53;;;;;;;3.60;3.00;;;19.70;58.40;;;;;;5072467;28;20044;-70
2022/05/24 09:06:43;;;;;;;3.53;2.53;;;19.60;58.00;;;;;;5073244;28;20028;-69
2022/05/24 09:09:39;;;;;;;8.98;2.78;;;19.70;58.00;;;;;;5049276;28;20036;-73
2022/05/24 09:12:13;;;;;;;3.90;3.05;;;19.60;58.20;;;;;;5072947;28;20021;-73
2022/05/24 09:15:12;;;;;;;6.35;2.85;;;19.70;58.00;;;;;;5071846;28;20076;-69
2022/05/24 09:18:02;;;;;;;5.43;2.88;;;19.80;58.10;;;;;;5072028;28;20040;-70
2022/05/24 09:20:35;;;;;;;3.78;3.20;;;19.70;57.50;;;;;;5065179;28;20111;-73
2022/05/24 09:23:09;;;;;;;5.43;3.20;;;19.70;57.50;;;;;;5067477;28;20029;-73
2022/05/24 09:25:35;;;;;;;5.72;2.90;;;19.60;57.70;;;;;;5061789;28;20118;-75
2022/05/24 09:28:02;;;;;;;3.45;2.72;;;19.60;57.90;;;;;;5065435;28;20051;-73
2022/05/24 09:30:31;;;;;;;3.92;3.22;;;19.50;58.70;;;;;;5071889;28;20037;-73
2022/05/24 09:33:20;;;;;;;5.07;3.10;;;19.50;58.30;;;;;;5072521;28;20028;-70
2022/05/24 09:35:48;;;;;;;4.28;2.88;;;19.50;59.10;;;;;;5072741;28;20469;-69
2022/05/24 09:38:17;;;;;;;5.88;3.17;;;19.50;58.80;;;;;;5040351;28;20028;-69
2022/05/24 09:41:03;;;;;;;3.33;2.88;;;19.40;59.20;;;;;;5066139;28;20021;-69
2022/05/24 09:43:35;;;;;;;4.55;2.90;;;19.20;59.40;;;;;;5070987;28;20032;-69
2022/05/24 09:46:11;;;;;;;5.45;2.92;;;19.10;59.20;;;;;;5072218;28;20048;-73
2022/05/24 09:48:50;;;;;;;2.92;2.70;;;19.00;59.80;;;;;;5069412;28;20025;-73
2022/05/24 09:51:28;;;;;;;4.43;3.17;;;19.00;60.40;;;;;;5046630;28;20044;-70
2022/05/24 09:53:55;;;;;;;7.05;3.40;;;18.80;63.80;;;;;;5072244;28;20028;-74
2022/05/24 09:56:29;;;;;;;5.60;3.30;;;18.70;67.80;;;;;;5069579;28;20029;-73
2022/05/24 09:59:01;;;;;;;4.63;3.90;;;18.40;71.80;;;;;;5072130;28;20044;-74
2022/05/24 10:01:35;;;;;;;4.53;3.85;;;18.50;75.20;;;;;;5072563;28;20020;-73
2022/05/24 10:04:22;;;;;;;4.68;4.10;;;18.30;79.00;;;;;;5071263;28;20454;-69
2022/05/24 10:07:03;;;;;;;5.03;4.00;;;18.20;81.60;;;;;;5068685;28;20033;-69
2022/05/24 10:09:47;;;;;;;7.95;5.07;;;18.10;82.80;;;;;;5063417;28;20072;-73
2022/05/24 10:12:31;;;;;;;9.52;5.25;;;18.10;84.20;;;;;;5065355;28;20466;-74
2022/05/24 10:15:07;;;;;;;5.30;4.78;;;18.10;85.10;;;;;;5067743;28;20112;-73
2022/05/24 10:18:04;;;;;;;7.43;5.55;;;18.10;85.80;;;;;;5072515;28;20025;-73
2022/05/24 10:20:42;;;;;;;4.88;4.40;;;18.10;85.80;;;;;;5069659;28;20041;-73
2022/05/24 10:23:30;;;;;;;7.93;4.85;;;18.20;83.70;;;;;;5071825;28;20033;-74
2022/05/24 10:26:11;;;;;;;9.63;5.10;;;18.30;83.20;;;;;;5054325;28;20030;-74
2022/05/24 10:28:55;;;;;;;7.20;5.00;;;18.20;80.40;;;;;;5047514;28;20024;-74
2022/05/24 10:31:42;;;;;;;6.15;4.90;;;18.10;81.50;;;;;;5071737;28;20036;-73
2022/05/24 10:40:53;;;;;;;6.28;4.60;;;18.00;79.10;;;;;;5071857;28;20036;-69
2022/05/24 10:43:56;;;;;;;6.07;4.50;;;17.90;81.80;;;;;;5074798;28;20060;-73
2022/05/24 10:46:29;;;;;;;7.07;4.68;;;17.80;82.90;;;;;;5073532;28;20029;-73
2022/05/24 10:49:11;;;;;;;8.27;4.10;;;17.70;83.50;;;;;;5061291;28;20017;-73
2022/05/24 10:51:52;;;;;;;5.40;4.40;;;17.70;86.10;;;;;;5052920;28;20021;-69
2022/05/24 10:54:20;;;;;;;4.78;4.38;;;17.70;89.40;;;;;;5074640;28;20055;-69
2022/05/24 10:56:53;;;;;;;8.70;5.10;;;17.70;91.20;;;;;;5069729;28;20109;-73
2022/05/24 10:59:38;;;;;;;10.88;4.50;;;17.70;89.50;;;;;;5075725;28;20028;-69
2022/05/24 11:02:25;;;;;;;7.45;4.78;;;17.80;90.40;;;;;;5075594;28;20043;-73
2022/05/24 11:05:25;;;;;;;9.25;4.90;;;17.90;92.20;;;;;;5075502;28;20049;-73
2022/05/24 11:07:59;;;;;;;7.38;5.00;;;17.90;89.60;;;;;;5053877;28;20113;-70
2022/05/24 11:10:27;;;;;;;6.15;4.72;;;18.00;90.50;;;;;;5074428;28;20041;-69
2022/05/24 11:12:57;;;;;;;6.05;4.50;;;17.90;92.60;;;;;;5075452;28;20025;-69
2022/05/24 11:15:42;;;;;;;5.40;4.25;;;18.00;93.40;;;;;;5075227;28;20111;-69
2022/05/24 11:18:14;;;;;;;5.00;4.47;;;17.90;94.50;;;;;;5072909;28;20036;-69
2022/05/24 11:20:43;;;;;;;8.90;4.77;;;18.00;94.20;;;;;;5075078;28;20116;-69
2022/05/24 11:23:16;;;;;;;9.02;5.35;;;18.10;89.60;;;;;;5057585;28;20543;-69
2022/05/24 11:26:27;;;;;;;13.10;5.07;;;18.10;99.10;;;;;;5054730;28;20029;-69
2022/05/24 11:29:12;;;;;;;8.52;5.70;;;18.10;95.10;;;;;;5055584;28;20546;-69
2022/05/24 11:31:47;;;;;;;9.50;5.63;;;18.20;96.80;;;;;;5053019;28;20210;-69
2022/05/24 11:34:20;;;;;;;7.72;4.57;;;18.40;96.00;;;;;;5045939;28;20016;-69
2022/05/24 11:37:06;;;;;;;6.28;5.25;;;18.40;93.90;;;;;;5047161;28;20033;-69
2022/05/24 11:39:38;;;;;;;10.07;5.72;;;18.50;92.00;;;;;;5048623;28;20016;-69
2022/05/24 11:42:23;;;;;;;8.73;5.10;;;18.60;90.00;;;;;;5047417;28;20087;-69
2022/05/24 11:44:50;;;;;;;5.70;4.72;;;18.70;86.60;;;;;;5073874;28;20032;-69
2022/05/24 11:47:34;;;;;;;10.40;5.20;;;18.80;85.40;;;;;;5074104;28;20040;-73
2022/05/24 11:50:02;;;;;;;8.50;5.32;;;18.80;85.90;;;;;;5074076;28;20115;-69
2022/05/24 11:52:57;;;;;;;7.45;4.25;;;18.80;86.20;;;;;;5073843;28;20506;-68
2022/05/24 11:55:39;;;;;;;10.77;5.38;;;19.00;86.50;;;;;;5067434;28;20116;-69
2022/05/24 11:58:20;;;;;;;7.47;4.50;;;19.10;81.70;;;;;;5051670;28;20028;-69
2022/05/24 12:01:00;;;;;;;7.03;4.03;;;19.10;79.40;;;;;;5072893;28;20056;-69
2022/05/24 12:09:15;;;;;;;6.07;5.25;;;19.20;84.90;;;;;;5053449;28;20077;-70
2022/05/24 12:11:40;;;;;;;6.35;4.65;;;19.30;77.40;;;;;;5073965;28;20040;-70
2022/05/24 12:14:14;;;;;;;8.30;5.40;;;19.60;80.30;;;;;;5074297;28;20025;-74
2022/05/24 12:16:54;;;;;;;7.05;4.88;;;19.70;78.70;;;;;;5073513;28;20146;-74
2022/05/24 12:19:40;;;;;;;8.50;4.70;;;19.90;77.90;;;;;;5074298;28;20123;-70
2022/05/24 12:22:11;;;;;;;8.70;5.22;;;20.30;78.10;;;;;;5073771;28;20040;-70
2022/05/24 12:24:36;;;;;;;5.45;4.72;;;20.50;76.80;;;;;;5072187;28;20044;-71
2022/05/24 12:27:36;;;;;;;6.95;4.90;;;20.50;73.30;;;;;;5052599;28;20029;-70
2022/05/24 12:30:24;;;;;;;10.55;4.78;;;20.50;74.10;;;;;;5072822;28;20055;-71
2022/05/24 12:32:51;;;;;;;5.00;4.35;;;20.40;72.40;;;;;;5071899;28;20515;-70
2022/05/24 12:35:18;;;;;;;7.00;4.25;;;20.40;70.60;;;;;;5074059;28;20024;-70
2022/05/24 12:37:51;;;;;;;10.73;4.15;;;20.50;70.40;;;;;;5062531;28;20633;-74
2022/05/24 12:40:29;;;;;;;4.45;3.55;;;20.60;69.80;;;;;;5048135;28;20021;-74
2022/05/24 12:42:57;;;;;;;5.15;3.92;;;20.60;66.50;;;;;;5056695;28;20037;-74
2022/05/24 12:45:40;;;;;;;5.20;3.72;;;20.60;65.70;;;;;;5065865;28;20029;-74
2022/05/24 12:48:23;;;;;;;8.05;4.28;;;20.70;64.60;;;;;;5074358;28;20108;-70
2022/05/24 12:50:48;;;;;;;4.40;4.00;;;20.90;65.90;;;;;;5064739;28;20075;-71
2022/05/24 12:53:21;;;;;;;7.15;4.68;;;20.80;66.40;;;;;;5063974;28;20016;-70
2022/05/24 12:55:57;;;;;;;;;;;20.90;65.20;;;;;;5064215;28;20021;-70
2022/05/24 12:58:38;;;;;;;6.45;3.97;;;20.90;65.20;;;;;;5045943;28;19909;-70
2022/05/24 13:01:13;;;;;;;4.38;3.92;;;21.00;66.10;;;;;;5050736;28;20107;-71
2022/05/24 13:04:00;;;;;;;6.78;4.35;;;21.10;65.00;;;;;;5060011;28;20040;-70
2022/05/24 13:06:38;;;;;;;6.88;4.13;;;21.10;64.70;;;;;;5068407;28;20499;-74
2022/05/24 13:09:11;;;;;;;4.35;3.95;;;21.00;63.70;;;;;;5061689;28;20066;-70
2022/05/24 13:11:37;;;;;;;6.47;4.35;;;21.20;64.30;;;;;;5072937;28;20113;-70
2022/05/24 13:14:04;;;;;;;8.15;4.30;;;21.30;66.30;;;;;;5073242;28;20044;-70
2022/05/24 13:16:32;;;;;;;5.97;3.92;;;21.50;65.50;;;;;;5072482;28;20059;-74
2022/05/24 13:18:58;;;;;;;6.57;4.40;;;21.60;63.80;;;;;;5073005;28;20035;-71
2022/05/24 13:21:24;;;;;;;5.72;4.15;;;21.60;61.50;;;;;;5062781;28;20025;-70
2022/05/24 13:24:15;;;;;;;5.63;4.18;;;21.50;62.60;;;;;;5053680;28;20421;-71
2022/05/24 13:27:01;;;;;;;7.20;3.60;;;21.40;61.40;;;;;;5056909;28;20045;-70
2022/05/24 13:29:29;;;;;;;5.82;4.10;;;21.30;62.50;;;;;;5057468;28;20494;-70
2022/05/24 13:34:55;;;;;;;6.88;4.50;;;21.40;63.90;;;;;;5069036;28;20051;-70
2022/05/24 13:37:25;;;;;;;6.60;4.55;;;21.40;62.90;;;;;;5072855;28;20032;-70
2022/05/24 13:39:53;;;;;;;6.80;4.30;;;21.60;62.20;;;;;;5071679;28;20024;-74
2022/05/24 13:42:30;;;;;;;7.30;4.68;;;21.60;62.80;;;;;;5071892;28;20029;-71
2022/05/24 13:45:08;;;;;;;6.80;4.47;;;21.60;61.90;;;;;;5072224;28;20033;-74
2022/05/24 13:47:37;;;;;;;6.35;4.05;;;21.50;63.30;;;;;;5072432;28;20020;-74
2022/05/24 13:50:29;;;;;;;11.38;4.28;;;21.40;61.80;;;;;;5072550;28;20025;-70
2022/05/24 13:53:00;;;;;;;;;;;21.40;61.50;;;;;;5071687;28;20030;-74
2022/05/24 13:55:36;;;;;;;6.50;4.60;;;21.30;63.00;;;;;;5073303;28;19965;-74
2022/05/24 13:58:04;;;;;;;7.85;4.05;;;21.40;64.20;;;;;;5071438;28;20466;-71
2022/05/24 14:00:38;;;;;;;6.78;4.30;;;21.60;64.90;;;;;;5071474;28;20024;-74